createdAt,value
2023-01-10T00:01:16.231Z,7.00
2023-01-10T00:03:47.917Z,7.00
2023-01-10T00:06:18.728Z,7.00
2023-01-10T00:08:50.166Z,7.00
2023-01-10T00:11:33.959Z,7.00
2023-01-10T00:14:05.051Z,7.00
2023-01-10T00:16:39.775Z,7.00
2023-01-10T00:19:11.440Z,7.00
2023-01-10T00:21:45.087Z,7.00
2023-01-10T00:24:22.652Z,7.00
2023-01-10T00:26:54.991Z,7.00
2023-01-10T00:29:29.379Z,7.00
2023-01-10T00:32:03.097Z,7.00
2023-01-10T00:34:35.108Z,7.00
2023-01-10T00:37:05.900Z,7.00
2023-01-10T00:39:37.472Z,7.10
2023-01-10T00:42:21.739Z,7.00
2023-01-10T00:44:52.849Z,7.00
2023-01-10T00:47:26.379Z,7.10
2023-01-10T00:49:58.331Z,7.00
2023-01-10T00:52:29.062Z,7.10
2023-01-10T00:55:00.343Z,7.00
2023-01-10T00:57:31.564Z,7.10
2023-01-10T01:00:02.981Z,7.00
2023-01-10T01:02:37.111Z,7.00
2023-01-10T01:05:09.833Z,7.00
2023-01-10T01:07:40.821Z,7.00
2023-01-10T01:10:25.725Z,7.00
2023-01-10T01:12:57.481Z,7.00
2023-01-10T01:15:30.273Z,7.00
2023-01-10T01:18:04.664Z,7.00
2023-01-10T01:20:36.754Z,7.00
2023-01-10T01:23:08.311Z,7.00
2023-01-10T01:25:39.762Z,7.00
2023-01-10T01:28:10.921Z,7.00
2023-01-10T01:30:42.199Z,7.00
2023-01-10T01:33:15.668Z,7.00
2023-01-10T01:35:48.107Z,7.00
2023-01-10T01:38:18.979Z,7.00
2023-01-10T01:40:50.862Z,7.00
2023-01-10T01:43:27.407Z,7.00
2023-01-10T01:46:00.528Z,7.00
2023-01-10T01:48:39.652Z,7.00
2023-01-10T01:51:14.914Z,7.00
2023-01-10T01:53:49.352Z,7.00
2023-01-10T01:56:23.056Z,7.00
2023-01-10T01:58:57.980Z,7.00
2023-01-10T02:01:31.438Z,7.00
2023-01-10T02:04:18.381Z,7.00
2023-01-10T02:06:52.333Z,7.00
2023-01-10T02:09:29.057Z,7.00
2023-01-10T02:12:00.970Z,7.00
2023-01-10T02:14:34.044Z,7.00
2023-01-10T02:17:05.354Z,7.00
2023-01-10T02:19:51.134Z,6.90
2023-01-10T02:22:55.755Z,7.00
2023-01-10T02:26:04.260Z,7.00
2023-01-10T02:29:09.620Z,7.00
2023-01-10T02:32:09.511Z,7.00
2023-01-10T02:34:50.510Z,7.00
2023-01-10T02:37:28.924Z,7.00
2023-01-10T02:40:05.108Z,7.00
2023-01-10T02:42:44.424Z,7.00
2023-01-10T02:45:20.890Z,7.00
2023-01-10T02:47:54.398Z,7.00
2023-01-10T02:50:39.488Z,7.00
2023-01-10T02:53:14.834Z,6.90
2023-01-10T02:56:13.523Z,6.90
2023-01-10T02:59:03.753Z,6.90
2023-01-10T03:01:45.648Z,7.00
2023-01-10T03:04:27.459Z,6.90
2023-01-10T03:07:05.326Z,6.90
2023-01-10T03:09:44.638Z,6.90
2023-01-10T03:12:22.598Z,6.90
2023-01-10T03:14:54.608Z,6.90
2023-01-10T03:17:27.730Z,6.90
2023-01-10T03:20:05.384Z,6.90
2023-01-10T03:22:41.062Z,6.90
2023-01-10T03:25:16.519Z,6.90
2023-01-10T03:27:56.032Z,6.90
2023-01-10T03:30:32.035Z,6.90
2023-01-10T03:33:03.716Z,6.90
2023-01-10T03:35:50.242Z,7.00
2023-01-10T03:38:28.123Z,6.90
2023-01-10T03:41:04.597Z,6.90
2023-01-10T03:43:56.436Z,6.90
2023-01-10T03:46:34.280Z,6.90
2023-01-10T03:49:08.260Z,6.90
2023-01-10T03:51:43.247Z,6.90
2023-01-10T03:54:18.327Z,6.90
2023-01-10T03:56:50.831Z,6.90
2023-01-10T03:59:24.275Z,6.90
2023-01-10T04:01:55.678Z,6.90
2023-01-10T04:04:28.029Z,6.90
2023-01-10T04:07:02.207Z,6.90
2023-01-10T04:09:33.545Z,6.90
2023-01-10T04:12:05.033Z,6.90
2023-01-10T04:14:36.259Z,6.90
2023-01-10T04:17:08.002Z,6.90
2023-01-10T04:19:39.142Z,6.90
2023-01-10T04:22:13.005Z,6.90
2023-01-10T04:24:44.668Z,6.90
2023-01-10T04:27:16.885Z,6.90
2023-01-10T04:29:48.267Z,6.90
2023-01-10T04:32:19.273Z,6.90
2023-01-10T04:34:50.645Z,6.90
2023-01-10T04:37:24.372Z,6.90
2023-01-10T04:39:55.574Z,6.80
2023-01-10T04:42:26.388Z,6.90
2023-01-10T04:44:57.650Z,6.90
2023-01-10T04:47:28.384Z,6.90
2023-01-10T04:49:59.398Z,6.90
2023-01-10T04:52:32.789Z,6.80
2023-01-10T04:55:04.789Z,6.80
2023-01-10T04:57:35.686Z,6.80
2023-01-10T05:00:07.954Z,6.80
2023-01-10T05:02:42.901Z,6.80
2023-01-10T05:05:14.347Z,6.80
2023-01-10T05:07:49.823Z,6.80
2023-01-10T05:10:21.547Z,6.80
2023-01-10T05:12:54.657Z,6.80
2023-01-10T05:15:25.924Z,6.80
2023-01-10T05:18:00.874Z,6.80
2023-01-10T05:20:31.957Z,6.80
2023-01-10T05:23:05.465Z,6.80
2023-01-10T05:25:37.180Z,6.80
2023-01-10T05:28:08.352Z,6.80
2023-01-10T05:30:40.505Z,6.80
2023-01-10T05:33:11.910Z,6.80
2023-01-10T05:35:43.107Z,6.80
2023-01-10T05:38:16.245Z,6.80
2023-01-10T05:40:47.348Z,6.80
2023-01-10T05:43:18.919Z,6.80
2023-01-10T05:45:50.125Z,6.80
2023-01-10T05:48:21.498Z,6.80
2023-01-10T05:50:53.968Z,6.80
2023-01-10T05:53:27.445Z,6.80
2023-01-10T05:56:00.905Z,6.80
2023-01-10T05:58:32.285Z,6.80
2023-01-10T06:01:03.408Z,6.80
2023-01-10T06:03:34.232Z,6.80
2023-01-10T06:06:06.262Z,6.80
2023-01-10T06:08:40.956Z,6.80
2023-01-10T06:11:12.096Z,6.80
2023-01-10T06:13:42.785Z,6.80
2023-01-10T06:16:13.874Z,6.80
2023-01-10T06:18:44.455Z,6.80
2023-01-10T06:21:16.291Z,6.80
2023-01-10T06:23:49.879Z,6.80
2023-01-10T06:26:21.345Z,6.80
2023-01-10T06:28:52.241Z,6.80
2023-01-10T06:31:23.527Z,6.80
2023-01-10T06:33:54.562Z,6.80
2023-01-10T06:36:25.767Z,6.80
2023-01-10T06:38:59.276Z,6.80
2023-01-10T06:41:30.489Z,6.70
2023-01-10T06:44:01.288Z,6.70
2023-01-10T06:46:32.669Z,6.70
2023-01-10T06:49:04.396Z,6.70
2023-01-10T06:51:35.808Z,6.70
2023-01-10T06:54:10.050Z,6.70
2023-01-10T06:56:41.333Z,6.70
2023-01-10T06:59:12.606Z,6.70
2023-01-10T07:01:44.592Z,6.70
2023-01-10T07:04:16.178Z,6.70
2023-01-10T07:06:48.324Z,6.70
2023-01-10T07:09:22.637Z,6.70
2023-01-10T07:11:53.820Z,6.60
2023-01-10T07:14:24.861Z,6.60
2023-01-10T07:16:57.094Z,6.60
2023-01-10T07:19:28.829Z,6.50
2023-01-10T07:22:02.336Z,6.60
2023-01-10T07:24:35.986Z,6.60
2023-01-10T07:27:07.464Z,6.60
2023-01-10T07:29:38.897Z,6.60
2023-01-10T07:32:10.182Z,6.60
2023-01-10T07:34:40.707Z,6.60
2023-01-10T07:37:11.727Z,6.60
2023-01-10T07:39:45.347Z,6.60
2023-01-10T07:42:16.455Z,6.60
2023-01-10T07:44:49.428Z,6.60
2023-01-10T07:47:21.547Z,6.50
2023-01-10T07:49:53.084Z,6.50
2023-01-10T07:52:24.305Z,6.50
2023-01-10T07:54:57.415Z,6.50
2023-01-10T07:57:28.565Z,6.40
2023-01-10T07:59:59.303Z,6.40
2023-01-10T08:02:30.766Z,6.40
2023-01-10T08:05:03.331Z,6.40
2023-01-10T08:07:35.315Z,6.40
2023-01-10T08:10:10.289Z,6.40
2023-01-10T08:12:41.474Z,6.40
2023-01-10T08:15:13.513Z,6.30
2023-01-10T08:17:45.037Z,6.30
2023-01-10T08:20:16.436Z,6.30
2023-01-10T08:22:47.929Z,6.30
2023-01-10T08:25:21.528Z,6.30
2023-01-10T08:27:53.105Z,6.30
2023-01-10T08:30:24.162Z,6.30
2023-01-10T08:32:56.102Z,6.30
2023-01-10T08:35:27.671Z,6.30
2023-01-10T08:38:02.252Z,6.20
2023-01-10T08:40:36.854Z,6.20
2023-01-10T08:43:10.110Z,6.20
2023-01-10T08:45:41.825Z,6.30
2023-01-10T08:48:14.456Z,6.20
2023-01-10T08:50:45.825Z,6.20
2023-01-10T08:53:17.215Z,6.20
2023-01-10T08:55:52.449Z,6.20
2023-01-10T08:58:23.580Z,6.20
2023-01-10T09:00:54.332Z,6.20
2023-01-10T09:03:25.523Z,6.20
2023-01-10T09:05:56.051Z,6.20
2023-01-10T09:08:27.453Z,6.20
2023-01-10T09:11:02.229Z,6.20
2023-01-10T09:13:34.459Z,6.20
2023-01-10T09:16:05.539Z,6.20
2023-01-10T09:18:36.913Z,6.10
2023-01-10T09:21:08.739Z,6.20
2023-01-10T09:23:40.254Z,6.10
2023-01-10T09:26:13.649Z,6.10
2023-01-10T09:28:45.620Z,6.10
2023-01-10T09:31:17.241Z,6.10
2023-01-10T09:33:50.040Z,6.20
2023-01-10T09:36:20.862Z,6.20
2023-01-10T09:38:52.036Z,6.10
2023-01-10T09:41:39.791Z,6.20
2023-01-10T09:44:22.138Z,6.20
2023-01-10T09:47:14.235Z,6.20
2023-01-10T09:50:04.048Z,6.20
2023-01-10T09:52:37.636Z,6.10
2023-01-10T09:55:23.317Z,6.10
2023-01-10T09:58:01.334Z,6.10
2023-01-10T10:00:41.236Z,6.20
2023-01-10T10:03:23.880Z,6.20
2023-01-10T10:06:03.632Z,6.10
2023-01-10T10:08:34.868Z,6.10
2023-01-10T10:11:23.854Z,6.20
2023-01-10T10:14:07.042Z,6.20
2023-01-10T10:16:43.092Z,6.20
2023-01-10T10:19:22.120Z,6.20
2023-01-10T10:22:06.038Z,6.20
2023-01-10T10:24:52.229Z,6.20
2023-01-10T10:27:27.533Z,6.20
2023-01-10T10:30:23.918Z,6.20
2023-01-10T10:33:07.029Z,6.20
2023-01-10T10:35:41.616Z,6.20
2023-01-10T10:38:15.814Z,6.20
2023-01-10T10:40:48.099Z,6.20
2023-01-10T10:43:22.430Z,6.20
2023-01-10T10:46:00.688Z,6.20
2023-01-10T10:48:34.327Z,6.20
2023-01-10T10:51:10.582Z,6.20
2023-01-10T10:53:42.730Z,6.20
2023-01-10T10:56:18.704Z,6.20
2023-01-10T10:58:54.022Z,6.30
2023-01-10T11:01:27.866Z,6.30
2023-01-10T11:04:02.406Z,6.30
2023-01-10T11:06:36.027Z,6.30
2023-01-10T11:09:09.664Z,6.30
2023-01-10T11:11:44.092Z,6.30
2023-01-10T11:14:16.474Z,6.30
2023-01-10T11:16:50.775Z,6.30
2023-01-10T11:19:24.500Z,6.30
2023-01-10T11:21:58.676Z,6.40
2023-01-10T11:24:33.177Z,6.30
2023-01-10T11:27:07.871Z,6.40
2023-01-10T11:29:45.722Z,6.40
2023-01-10T11:32:22.532Z,6.40
2023-01-10T11:34:59.298Z,6.30
2023-01-10T11:37:32.918Z,6.30
2023-01-10T11:40:23.483Z,6.30
2023-01-10T11:42:56.216Z,6.30
2023-01-10T11:45:32.188Z,6.30
2023-01-10T11:48:48.023Z,6.40
2023-01-10T11:51:26.469Z,6.30
2023-01-10T11:54:02.069Z,6.30
2023-01-10T11:56:35.844Z,6.30
2023-01-10T11:59:14.253Z,6.30
2023-01-10T12:01:48.642Z,6.30
2023-01-10T12:04:23.545Z,6.20
2023-01-10T12:06:59.670Z,6.30
2023-01-10T12:09:45.311Z,6.30
2023-01-10T12:12:25.700Z,6.30
2023-01-10T12:14:57.666Z,6.20
2023-01-10T12:17:33.014Z,6.20
2023-01-10T12:20:16.406Z,6.20
2023-01-10T12:22:50.692Z,6.20
2023-01-10T12:25:24.685Z,6.20
2023-01-10T12:27:58.092Z,6.20
2023-01-10T12:30:34.980Z,6.20
2023-01-10T12:33:09.661Z,6.20
2023-01-10T12:35:50.801Z,6.20
2023-01-10T12:38:40.941Z,6.30
2023-01-10T12:41:36.417Z,6.30
2023-01-10T12:44:16.724Z,6.30
2023-01-10T12:47:06.435Z,6.30
2023-01-10T12:49:40.985Z,6.30
2023-01-10T12:52:21.404Z,6.40
2023-01-10T12:54:54.449Z,6.40
2023-01-10T12:57:27.601Z,6.40
2023-01-10T13:00:00.447Z,6.40
2023-01-10T13:02:41.750Z,6.40
2023-01-10T13:05:21.005Z,6.40
2023-01-10T13:07:56.995Z,6.40
2023-01-10T13:10:30.497Z,6.40
2023-01-10T13:13:07.494Z,6.40
2023-01-10T13:15:42.196Z,6.40
2023-01-10T13:18:22.671Z,6.40
2023-01-10T13:21:09.046Z,6.40
2023-01-10T13:23:48.779Z,6.30
2023-01-10T13:26:20.852Z,6.30
2023-01-10T13:28:59.054Z,6.30
2023-01-10T13:31:35.105Z,6.30
2023-01-10T13:34:09.336Z,6.30
2023-01-10T13:36:43.797Z,6.30
2023-01-10T13:39:27.832Z,6.30
2023-01-10T13:42:27.909Z,6.30
2023-01-10T13:45:27.539Z,6.30
2023-01-10T13:48:07.785Z,6.30
2023-01-10T13:51:19.064Z,6.30
2023-01-10T13:54:27.284Z,6.30
2023-01-10T13:57:01.417Z,6.30
2023-01-10T14:00:14.825Z,6.30
2023-01-10T14:02:49.017Z,6.30
2023-01-10T14:05:24.515Z,6.30
2023-01-10T14:07:58.209Z,6.30
2023-01-10T14:10:31.953Z,6.20
2023-01-10T14:13:09.568Z,6.20
2023-01-10T14:15:43.691Z,6.20
2023-01-10T14:18:24.298Z,6.20
2023-01-10T14:21:00.287Z,6.20
2023-01-10T14:23:37.633Z,6.20
2023-01-10T14:26:09.487Z,6.10
2023-01-10T14:28:44.607Z,6.10
2023-01-10T14:31:22.801Z,6.10
2023-01-10T14:33:54.502Z,6.10
2023-01-10T14:36:30.332Z,6.10
2023-01-10T14:39:05.646Z,6.10
2023-01-10T14:41:40.215Z,6.10
2023-01-10T14:44:20.290Z,6.10
2023-01-10T14:46:53.254Z,6.10
2023-01-10T14:49:27.074Z,6.00
2023-01-10T14:52:01.242Z,6.00
2023-01-10T14:54:32.450Z,6.00
2023-01-10T14:57:04.158Z,6.00
2023-01-10T14:59:38.917Z,6.00
2023-01-10T15:02:19.101Z,6.00
2023-01-10T15:04:57.303Z,6.00
2023-01-10T15:07:29.551Z,6.00
2023-01-10T15:10:06.247Z,6.00
2023-01-10T15:12:39.170Z,6.00
2023-01-10T15:15:19.925Z,6.00
2023-01-10T15:17:51.974Z,6.00
2023-01-10T15:20:24.106Z,6.00
2023-01-10T15:23:01.066Z,6.00
2023-01-10T15:25:38.243Z,6.00
2023-01-10T15:28:17.722Z,6.00
2023-01-10T15:30:51.864Z,5.90
2023-01-10T15:33:29.419Z,6.00
2023-01-10T15:36:06.234Z,6.00
2023-01-10T15:38:41.673Z,5.90
2023-01-10T15:41:13.132Z,6.00
2023-01-10T15:43:44.263Z,6.00
2023-01-10T15:46:23.428Z,6.00
2023-01-10T15:49:01.499Z,6.00
2023-01-10T15:51:35.907Z,6.00
2023-01-10T15:54:10.012Z,6.00
2023-01-10T15:56:43.826Z,6.00
2023-01-10T15:59:29.433Z,6.00
2023-01-10T16:02:08.667Z,6.00
2023-01-10T16:04:40.712Z,6.00
2023-01-10T16:07:16.789Z,5.90
2023-01-10T16:09:57.310Z,5.90
2023-01-10T16:12:44.374Z,5.90
2023-01-10T16:15:20.793Z,5.90
2023-01-10T16:17:55.886Z,5.90
2023-01-10T16:20:32.875Z,5.90
2023-01-10T16:23:05.178Z,5.90
2023-01-10T16:25:38.778Z,5.90
2023-01-10T16:28:10.215Z,5.90
2023-01-10T16:30:46.755Z,5.90
2023-01-10T16:33:23.823Z,5.90
2023-01-10T16:35:57.276Z,5.90
2023-01-10T16:38:31.699Z,5.90
2023-01-10T16:41:24.742Z,5.90
2023-01-10T16:43:54.182Z,6.00
2023-01-10T16:46:26.723Z,6.00
2023-01-10T16:49:05.157Z,6.00
2023-01-10T16:51:36.668Z,6.00
2023-01-10T16:54:08.232Z,6.00
2023-01-10T16:56:39.619Z,6.00
2023-01-10T16:59:10.564Z,6.00
2023-01-10T17:01:46.703Z,5.90
2023-01-10T17:04:24.495Z,5.90
2023-01-10T17:06:56.861Z,5.90
2023-01-10T17:09:29.776Z,5.90
2023-01-10T17:12:04.813Z,5.90
2023-01-10T17:14:38.335Z,5.80
2023-01-10T17:17:09.547Z,5.80
2023-01-10T17:19:44.836Z,5.80
2023-01-10T17:22:16.346Z,5.80
2023-01-10T17:24:48.128Z,5.90
2023-01-10T17:27:20.638Z,5.90
2023-01-10T17:29:51.885Z,5.90
2023-01-10T17:32:23.145Z,6.00
2023-01-10T17:34:56.263Z,6.00
2023-01-10T17:37:28.187Z,6.00
2023-01-10T17:39:58.978Z,6.00
2023-01-10T17:42:30.286Z,6.00
2023-01-10T17:45:01.326Z,6.00
2023-01-10T17:47:32.560Z,6.00
2023-01-10T17:50:07.182Z,6.00
2023-01-10T17:52:39.098Z,6.00
2023-01-10T17:55:11.327Z,6.00
2023-01-10T17:57:43.079Z,5.90
2023-01-10T18:00:15.339Z,5.90
2023-01-10T18:02:46.596Z,5.80
2023-01-10T18:05:20.585Z,5.80
2023-01-10T18:07:51.768Z,5.80
2023-01-10T18:10:22.757Z,5.70
2023-01-10T18:12:53.897Z,5.70
2023-01-10T18:15:25.234Z,5.70
2023-01-10T18:17:58.090Z,5.70
2023-01-10T18:20:32.068Z,5.70
2023-01-10T18:23:15.552Z,5.60
2023-01-10T18:25:53.000Z,5.60
2023-01-10T18:28:39.615Z,5.70
2023-01-10T18:31:14.360Z,5.70
2023-01-10T18:33:47.849Z,5.70
2023-01-10T18:36:24.568Z,5.70
2023-01-10T18:38:56.263Z,5.60
2023-01-10T18:41:28.010Z,5.70
2023-01-10T18:43:59.450Z,5.70
2023-01-10T18:46:32.640Z,5.70
2023-01-10T18:49:04.102Z,5.70
2023-01-10T18:51:38.299Z,5.80
2023-01-10T18:54:09.757Z,5.80
2023-01-10T18:56:41.307Z,5.80
2023-01-10T18:59:12.789Z,5.80
2023-01-10T19:01:44.981Z,5.80
2023-01-10T19:04:17.680Z,5.80
2023-01-10T19:06:51.692Z,5.70
2023-01-10T19:09:23.832Z,5.70
2023-01-10T19:11:55.476Z,5.70
2023-01-10T19:14:26.871Z,5.70
2023-01-10T19:16:57.733Z,5.70
2023-01-10T19:19:29.230Z,5.80
2023-01-10T19:22:03.454Z,5.80
2023-01-10T19:24:38.001Z,5.80
2023-01-10T19:27:09.738Z,5.80
2023-01-10T19:29:41.197Z,5.80
2023-01-10T19:32:13.187Z,5.80
2023-01-10T19:34:46.472Z,5.80
2023-01-10T19:37:20.312Z,5.80
2023-01-10T19:39:52.452Z,5.90
2023-01-10T19:42:26.020Z,5.90
2023-01-10T19:44:58.139Z,5.90
2023-01-10T19:47:29.559Z,5.90
2023-01-10T19:50:01.193Z,5.90
2023-01-10T19:52:35.302Z,5.90
2023-01-10T19:55:08.215Z,5.90
2023-01-10T19:57:40.157Z,5.90
2023-01-10T20:00:13.562Z,5.90
2023-01-10T20:02:45.328Z,5.90
2023-01-10T20:05:17.040Z,5.90
2023-01-10T20:07:55.469Z,5.90
2023-01-10T20:10:27.403Z,5.90
2023-01-10T20:12:59.764Z,5.80
2023-01-10T20:15:31.014Z,5.80
2023-01-10T20:18:02.182Z,5.80
2023-01-10T20:20:34.120Z,5.80
2023-01-10T20:23:12.520Z,5.80
2023-01-10T20:25:44.009Z,5.70
2023-01-10T20:28:14.847Z,5.70
2023-01-10T20:30:46.669Z,5.80
2023-01-10T20:33:18.219Z,5.80
2023-01-10T20:35:59.178Z,5.70
2023-01-10T20:38:34.675Z,5.70
2023-01-10T20:41:08.825Z,5.60
2023-01-10T20:43:40.715Z,5.60
2023-01-10T20:46:15.036Z,5.60
2023-01-10T20:48:46.476Z,5.60
2023-01-10T20:51:20.821Z,5.50
2023-01-10T20:53:54.358Z,5.50
2023-01-10T20:56:28.756Z,5.50
2023-01-10T20:58:59.569Z,5.50
2023-01-10T21:01:35.190Z,5.60
2023-01-10T21:04:08.028Z,5.50
2023-01-10T21:06:40.105Z,5.60
2023-01-10T21:09:16.861Z,5.60
2023-01-10T21:12:02.064Z,5.60
2023-01-10T21:14:39.819Z,5.60
2023-01-10T21:17:11.554Z,5.70
2023-01-10T21:19:43.073Z,5.70
2023-01-10T21:22:14.194Z,5.70
2023-01-10T21:24:48.473Z,5.70
2023-01-10T21:27:20.382Z,5.80
2023-01-10T21:29:51.165Z,5.80
2023-01-10T21:32:22.292Z,5.80
2023-01-10T21:34:53.071Z,5.80
2023-01-10T21:37:24.192Z,5.80
2023-01-10T21:39:59.936Z,5.90
2023-01-10T21:42:45.035Z,5.80
2023-01-10T21:45:17.082Z,5.80
2023-01-10T21:47:48.239Z,5.80
2023-01-10T21:50:22.151Z,5.80
2023-01-10T21:52:53.622Z,5.80
2023-01-10T21:55:26.852Z,5.80
2023-01-10T21:57:58.992Z,5.70
2023-01-10T22:00:30.246Z,5.70
2023-01-10T22:03:01.394Z,5.70
2023-01-10T22:05:32.073Z,5.70
2023-01-10T22:08:03.906Z,5.70
2023-01-10T22:10:37.353Z,5.70
2023-01-10T22:13:08.875Z,5.70
2023-01-10T22:15:41.369Z,5.80
2023-01-10T22:18:12.535Z,5.70
2023-01-10T22:20:46.655Z,5.80
2023-01-10T22:23:17.802Z,5.70
2023-01-10T22:26:01.328Z,5.80
2023-01-10T22:28:32.880Z,5.80
2023-01-10T22:31:05.241Z,5.80
2023-01-10T22:33:38.299Z,5.80
2023-01-10T22:36:10.530Z,5.80
2023-01-10T22:38:42.264Z,5.80
2023-01-10T22:41:17.149Z,5.80
2023-01-10T22:43:49.350Z,5.70
2023-01-10T22:46:20.985Z,5.70
2023-01-10T22:48:52.569Z,5.80
2023-01-10T22:51:25.957Z,5.80
2023-01-10T22:53:59.479Z,5.80
2023-01-10T22:56:33.221Z,5.80
2023-01-10T22:59:04.618Z,5.80
2023-01-10T23:01:36.033Z,5.80
2023-01-10T23:04:07.896Z,5.80
2023-01-10T23:06:39.079Z,5.80
2023-01-10T23:09:10.171Z,5.80
2023-01-10T23:11:44.292Z,5.80
2023-01-10T23:14:15.422Z,5.80
2023-01-10T23:16:46.399Z,5.80
2023-01-10T23:19:17.612Z,5.80
2023-01-10T23:21:48.512Z,5.80
2023-01-10T23:24:20.145Z,5.80
2023-01-10T23:26:55.168Z,5.80
2023-01-10T23:29:26.544Z,5.80
2023-01-10T23:31:57.431Z,5.80
2023-01-10T23:34:28.938Z,5.90
2023-01-10T23:37:00.378Z,5.80
2023-01-10T23:39:31.610Z,5.80
2023-01-10T23:42:04.750Z,5.80
2023-01-10T23:44:36.043Z,5.70
2023-01-10T23:47:06.568Z,5.70
2023-01-10T23:49:37.870Z,5.70
2023-01-10T23:52:09.097Z,5.70
2023-01-10T23:54:40.406Z,5.80
2023-01-10T23:57:13.911Z,5.80
2023-01-10T23:59:45.373Z,5.80
